GCFV/FUE METAR and TAF weather

Enter ICAO airport designator
Station Type Date Time Source
GCFV METAR 2020/04/06 18:30 UTC NOAA

GCFV 061830Z 06009KT 9999 FEW030 21/18 Q1020


Station Type Date Time Source
GCFV Decoded METAR 2020/04/06 18:30 UTC NOAA

Fuerteventura / Aeropuerto, Spain (GCFV) 28-27N 013-52W 30M
Apr 06, 2020 - 02:30 PM EDT / 2020.04.06 1830 UTC
Wind: from the ENE (060 degrees) at 10 MPH (9 KT):0
Visibility: greater than 7 mile(s):0
Sky conditions: mostly clear
Temperature: 69 F (21 C)
Dew Point: 64 F (18 C)
Relative Humidity: 82%
Pressure (altimeter): 30.12 in. Hg (1020 hPa)
ob: GCFV 061830Z 06009KT 9999 FEW030 21/18 Q1020
cycle: 18

Station Type Date Time Source
GCFV TAF 2020/04/06 15:27 UTC NOAA

TAF TAF GCFV 061400Z 0615/0715 06013KT 9999 FEW025 TX25/0714Z TN18/0706Z
BECMG 0617/0619 35011KT
BECMG 0709/0711 05012KT

Example: see airport list